메인 페이지
METAR-TAF:

METAR-TAF

공항 :

프라하 바츨라프 하벨 국제공항

프라하, 체코

위도: 50-06N, 경도: 014-15E, 고도: 365m

현재 날씨관측

예보는 34분 전, 11:30시(UTC)에 발표되었습니다.
6kt북서풍과 북동풍을 오가는
온도 13°C
습도 62%
기압 1027 hPa
시정 10km 이상
고도 2600ft 상공 구름 보통

METAR: LKPR 201130Z 35006KT 310V040 9999 SCT026 13/06 Q1027 NOSIG

시각: 14:04 (12:04 UTC)

예보

예보는 1 시간 4분 전, 11:00시(UTC)에 발표되었습니다.
예보 대상 시간: 20일 12시부터 21일 18시까지 (UTC)
북북서7kt
시정 10km 이상
고도 2300ft 상공 구름 보통
일시적
21일 00시부터 21일 08시까지 (UTC)
시정: 5000m
고도 1300ft 상공 구름 많음
박무
전환 중
21일 15시부터 21일 17시까지 (UTC)
여러 방향의 바람 2kt

TAF: LKPR 201100Z 2012/2118 34007KT 9999 SCT023 TEMPO 2100/2108 5000 BR BKN013 BECMG 2115/2117 VRB02KT

4,000개 이상의 공항 관측 자료 및 예보 (METAR 및 TAF 보고).

지도상에서 검색 가능한 기상관측소가 노란 점과 빨간 점으로 표시되어 있습니다.

기상관측소 명을 보려면 표시 위로 마우스를 이동하세요.

날씨 관측과 예보를 보려면 클릭하세요.

지도 변경 : 확대하려면 엑스 표시가 있는 녹색 버튼, 축소하려면 빼기 표시가 있는 녹색 버튼, 다음 페이지의 지도를 보려면 녹색 화살표를 클릭하세요.


METAR-TAF: